createdAt,value
2018-05-21T00:01:26.312Z,13.50
2018-05-21T00:03:53.860Z,12.50
2018-05-21T00:06:21.420Z,12.03
2018-05-21T00:08:48.970Z,12.93
2018-05-21T00:11:17.403Z,13.77
2018-05-21T00:13:44.936Z,11.47
2018-05-21T00:16:12.497Z,17.80
2018-05-21T00:18:40.045Z,14.27
2018-05-21T00:21:07.608Z,13.47
2018-05-21T00:23:35.143Z,21.27
2018-05-21T00:26:02.704Z,20.73
2018-05-21T00:28:30.232Z,18.27
2018-05-21T00:30:58.556Z,15.73
2018-05-21T00:33:26.101Z,16.20
2018-05-21T00:35:53.661Z,14.40
2018-05-21T00:38:21.213Z,14.93
2018-05-21T00:40:48.760Z,17.97
2018-05-21T00:43:16.311Z,16.13
2018-05-21T00:45:44.516Z,13.77
2018-05-21T00:48:12.041Z,15.67
2018-05-21T00:50:39.568Z,16.07
2018-05-21T00:53:07.112Z,16.13
2018-05-21T00:55:38.201Z,17.33
2018-05-21T00:58:05.757Z,19.17
2018-05-21T01:00:34.067Z,17.70
2018-05-21T01:03:01.620Z,18.90
2018-05-21T01:05:29.179Z,21.33
2018-05-21T01:07:56.739Z,19.20
2018-05-21T01:10:24.285Z,16.93
2018-05-21T01:12:51.829Z,20.00
2018-05-21T01:15:19.368Z,17.87
2018-05-21T01:17:47.700Z,18.57
2018-05-21T01:20:15.219Z,21.73
2018-05-21T01:22:43.546Z,20.77
2018-05-21T01:25:11.085Z,23.60
2018-05-21T01:27:38.642Z,40.37
2018-05-21T01:30:06.176Z,20.97
2018-05-21T01:32:33.757Z,23.37
2018-05-21T01:35:01.317Z,29.10
2018-05-21T01:37:28.887Z,31.10
2018-05-21T01:39:56.434Z,35.83
2018-05-21T01:42:23.976Z,30.10
2018-05-21T01:44:51.559Z,31.90
2018-05-21T01:47:19.095Z,27.80
2018-05-21T01:49:46.637Z,26.93
2018-05-21T01:52:14.944Z,71.07
2018-05-21T01:54:42.492Z,25.17
2018-05-21T01:57:10.033Z,32.97
2018-05-21T01:59:38.360Z,34.97
2018-05-21T02:02:05.892Z,33.33
2018-05-21T02:04:33.432Z,34.07
2018-05-21T02:07:00.980Z,40.60
2018-05-21T02:09:29.280Z,47.00
2018-05-21T02:11:56.822Z,43.07
2018-05-21T02:14:24.412Z,36.73
2018-05-21T02:16:51.948Z,35.87
2018-05-21T02:19:19.501Z,34.00
2018-05-21T02:21:47.037Z,35.97
2018-05-21T02:24:14.575Z,50.43
2018-05-21T02:26:42.629Z,42.43
2018-05-21T02:29:10.177Z,43.53
2018-05-21T02:31:37.713Z,44.27
2018-05-21T02:34:05.256Z,45.83
2018-05-21T02:36:33.161Z,46.27
2018-05-21T02:39:00.716Z,31.77
2018-05-21T02:41:28.245Z,37.10
2018-05-21T02:43:56.605Z,53.07
2018-05-21T02:46:24.124Z,32.07
2018-05-21T02:48:51.673Z,31.80
2018-05-21T02:51:19.222Z,32.50
2018-05-21T02:53:46.762Z,33.23
2018-05-21T02:56:14.300Z,31.03
2018-05-21T02:58:42.625Z,34.83
2018-05-21T03:01:11.446Z,36.03
2018-05-21T03:03:39.010Z,49.80
2018-05-21T03:06:06.531Z,37.23
2018-05-21T03:08:34.080Z,37.20
2018-05-21T03:11:01.668Z,120.57
2018-05-21T03:13:29.204Z,296.53
2018-05-21T03:15:56.768Z,45.60
2018-05-21T03:18:24.317Z,46.03
2018-05-21T03:20:53.345Z,48.93
2018-05-21T03:23:20.875Z,45.87
2018-05-21T03:25:48.419Z,39.63
2018-05-21T03:28:15.952Z,32.57
2018-05-21T03:30:44.769Z,30.57
2018-05-21T03:33:12.300Z,36.33
2018-05-21T03:35:39.868Z,31.40
2018-05-21T03:38:07.401Z,32.77
2018-05-21T03:40:35.347Z,31.20
2018-05-21T03:43:02.884Z,39.57
2018-05-21T03:45:30.444Z,37.43
2018-05-21T03:47:57.984Z,44.43
2018-05-21T03:50:25.534Z,56.33
2018-05-21T03:52:53.051Z,39.03
2018-05-21T03:55:20.617Z,40.50
2018-05-21T03:57:48.149Z,42.03
2018-05-21T04:00:28.141Z,47.10
2018-05-21T04:05:59.779Z,43.87
2018-05-21T04:08:27.358Z,42.10
2018-05-21T04:10:54.842Z,50.13
2018-05-21T04:13:22.384Z,67.27
2018-05-21T04:15:49.932Z,69.20
2018-05-21T04:18:17.466Z,62.23
2018-05-21T04:20:45.009Z,50.07
2018-05-21T04:23:12.536Z,51.97
2018-05-21T04:25:40.170Z,42.40
2018-05-21T04:28:07.623Z,38.27
2018-05-21T04:30:35.197Z,38.67
2018-05-21T04:33:03.562Z,33.57
2018-05-21T04:35:31.111Z,33.67
2018-05-21T04:37:58.657Z,39.33
2018-05-21T04:40:26.189Z,89.70
2018-05-21T04:42:53.722Z,42.77
2018-05-21T04:45:21.260Z,116.97
2018-05-21T04:47:49.567Z,41.73
2018-05-21T04:50:17.094Z,45.27
2018-05-21T04:52:44.647Z,44.13
2018-05-21T04:55:12.173Z,55.57
2018-05-21T04:57:40.494Z,45.60
2018-05-21T05:00:08.832Z,40.23
2018-05-21T05:02:37.628Z,18.53
2018-05-21T05:05:05.208Z,16.40
2018-05-21T05:07:32.798Z,17.00
2018-05-21T05:10:00.355Z,13.27
2018-05-21T05:12:28.682Z,12.67
2018-05-21T05:14:56.226Z,10.17
2018-05-21T05:17:24.538Z,13.20
2018-05-21T05:19:52.891Z,12.87
2018-05-21T05:22:20.440Z,11.90
2018-05-21T05:24:48.006Z,9.67
2018-05-21T05:27:16.398Z,11.97
2018-05-21T05:29:43.932Z,10.50
2018-05-21T05:32:11.492Z,8.07
2018-05-21T05:34:39.796Z,8.07
2018-05-21T05:37:07.345Z,10.93
2018-05-21T05:39:34.900Z,7.33
2018-05-21T05:42:02.591Z,7.37
2018-05-21T05:44:30.121Z,7.37
2018-05-21T05:46:58.422Z,13.70
2018-05-21T05:49:26.735Z,6.37
2018-05-21T05:51:54.278Z,6.27
2018-05-21T05:54:21.858Z,5.93
2018-05-21T05:56:49.401Z,7.70
2018-05-21T05:59:16.934Z,7.87
2018-05-21T06:01:45.197Z,6.57
2018-05-21T06:04:12.744Z,7.23
2018-05-21T06:06:41.032Z,8.87
2018-05-21T06:09:08.569Z,4.77
2018-05-21T06:11:36.137Z,6.07
2018-05-21T06:14:03.718Z,5.00
2018-05-21T06:16:31.256Z,6.57
2018-05-21T06:18:58.799Z,4.60
2018-05-21T06:21:26.331Z,5.70
2018-05-21T06:23:53.871Z,6.23
2018-05-21T06:26:21.444Z,4.33
2018-05-21T06:28:48.977Z,3.63
2018-05-21T06:31:16.516Z,3.97
2018-05-21T06:33:44.052Z,5.63
2018-05-21T06:36:11.580Z,5.27
2018-05-21T06:38:39.117Z,5.03
2018-05-21T06:41:06.781Z,4.37
2018-05-21T06:43:35.048Z,4.23
2018-05-21T06:46:02.606Z,4.53
2018-05-21T06:48:30.907Z,4.83
2018-05-21T06:50:59.216Z,4.03
2018-05-21T06:53:27.518Z,3.30
2018-05-21T06:55:55.829Z,4.53
2018-05-21T06:58:24.124Z,4.10
2018-05-21T07:00:51.665Z,7.23
2018-05-21T07:03:19.192Z,4.43
2018-05-21T07:05:47.510Z,6.30
2018-05-21T07:08:15.040Z,4.37
2018-05-21T07:10:42.583Z,4.20
2018-05-21T07:13:10.877Z,4.00
2018-05-21T07:15:38.425Z,6.13
2018-05-21T07:18:06.055Z,6.13
2018-05-21T07:20:33.639Z,3.20
2018-05-21T07:23:01.183Z,3.50
2018-05-21T07:25:28.734Z,5.53
2018-05-21T07:27:56.393Z,4.13
2018-05-21T07:30:23.920Z,4.57
2018-05-21T07:32:51.479Z,6.47
2018-05-21T07:35:19.005Z,5.13
2018-05-21T07:37:46.544Z,4.00
2018-05-21T07:40:14.096Z,3.80
2018-05-21T07:42:42.395Z,4.17
2018-05-21T07:45:10.703Z,4.43
2018-05-21T07:47:38.239Z,3.63
2018-05-21T07:50:05.817Z,3.77
2018-05-21T07:52:33.415Z,4.67
2018-05-21T07:55:01.794Z,3.60
2018-05-21T07:57:29.383Z,6.03
2018-05-21T07:59:56.908Z,4.47
2018-05-21T08:02:24.445Z,4.27
2018-05-21T08:04:52.002Z,5.27
2018-05-21T08:07:19.562Z,3.33
2018-05-21T08:09:47.865Z,4.20
2018-05-21T08:12:16.169Z,5.00
2018-05-21T08:14:44.494Z,4.20
2018-05-21T08:17:12.771Z,5.63
2018-05-21T08:19:40.290Z,6.00
2018-05-21T08:22:07.902Z,4.17
2018-05-21T08:24:35.417Z,3.90
2018-05-21T08:27:03.745Z,5.93
2018-05-21T08:29:31.276Z,3.43
2018-05-21T08:31:58.825Z,4.27
2018-05-21T08:34:26.357Z,5.57
2018-05-21T08:36:53.906Z,4.50
2018-05-21T08:39:21.446Z,4.57
2018-05-21T08:41:49.768Z,6.77
2018-05-21T08:44:17.314Z,8.30
2018-05-21T08:46:44.861Z,3.53
2018-05-21T08:49:12.401Z,10.43
2018-05-21T08:51:40.704Z,6.90
2018-05-21T08:54:09.013Z,5.40
2018-05-21T08:56:37.384Z,3.87
2018-05-21T08:59:04.877Z,5.33
2018-05-21T09:01:32.416Z,5.40
2018-05-21T09:03:59.956Z,7.13
2018-05-21T09:06:28.265Z,5.60
2018-05-21T09:08:55.815Z,4.23
2018-05-21T09:11:23.350Z,5.07
2018-05-21T09:13:50.888Z,6.03
2018-05-21T09:16:18.457Z,3.83
2018-05-21T09:18:45.962Z,4.07
2018-05-21T09:21:13.507Z,5.67
2018-05-21T09:23:41.046Z,4.70
2018-05-21T09:26:09.456Z,6.07
2018-05-21T09:28:41.429Z,4.70
2018-05-21T09:31:08.948Z,4.97
2018-05-21T09:33:36.504Z,8.57
2018-05-21T09:36:04.460Z,5.83
2018-05-21T09:38:32.012Z,5.27
2018-05-21T09:40:59.539Z,5.07
2018-05-21T09:43:27.086Z,4.83
2018-05-21T09:45:54.613Z,5.50
2018-05-21T09:48:22.152Z,4.97
2018-05-21T09:50:49.714Z,4.83
2018-05-21T09:53:17.248Z,4.63
2018-05-21T09:55:45.672Z,4.93
2018-05-21T09:58:13.213Z,7.20
2018-05-21T10:00:40.748Z,6.03
2018-05-21T10:03:08.299Z,4.90
2018-05-21T10:05:35.865Z,4.47
2018-05-21T10:08:03.487Z,5.45
2018-05-21T10:10:31.030Z,5.72
2018-05-21T10:12:58.588Z,4.35
2018-05-21T10:15:26.890Z,6.03
2018-05-21T10:17:54.465Z,7.05
2018-05-21T10:20:22.811Z,5.37
2018-05-21T10:22:50.334Z,5.75
2018-05-21T10:25:17.895Z,5.25
2018-05-21T10:27:45.437Z,4.13
2018-05-21T10:30:12.977Z,9.23
2018-05-21T10:32:40.516Z,6.53
2018-05-21T10:35:08.091Z,5.17
2018-05-21T10:37:35.653Z,4.10
2018-05-21T10:40:03.214Z,5.53
2018-05-21T10:42:30.750Z,4.63
2018-05-21T10:44:58.314Z,6.13
2018-05-21T10:47:26.600Z,5.40
2018-05-21T10:49:54.141Z,5.37
2018-05-21T10:52:21.700Z,7.97
2018-05-21T10:54:49.248Z,4.90
2018-05-21T10:57:16.792Z,4.60
2018-05-21T10:59:44.330Z,4.40
2018-05-21T11:02:12.653Z,4.50
2018-05-21T11:04:40.248Z,5.63
2018-05-21T11:07:07.732Z,6.80
2018-05-21T11:09:35.287Z,4.40
2018-05-21T11:12:03.723Z,5.67
2018-05-21T11:14:31.207Z,7.40
2018-05-21T11:16:58.751Z,6.27
2018-05-21T11:19:26.289Z,4.40
2018-05-21T11:21:55.036Z,6.20
2018-05-21T11:24:22.586Z,5.00
2018-05-21T11:26:50.124Z,4.60
2018-05-21T11:29:18.428Z,4.23
2018-05-21T11:31:46.725Z,6.37
2018-05-21T11:34:15.029Z,5.20
2018-05-21T11:36:43.345Z,4.17
2018-05-21T11:39:10.917Z,4.83
2018-05-21T11:41:39.212Z,4.30
2018-05-21T11:44:07.532Z,4.00
2018-05-21T11:46:35.083Z,4.13
2018-05-21T11:49:02.637Z,4.47
2018-05-21T11:51:30.166Z,7.50
2018-05-21T11:53:58.482Z,4.00
2018-05-21T11:56:26.786Z,3.57
2018-05-21T11:58:55.098Z,4.20
2018-05-21T12:01:22.646Z,4.97
2018-05-21T12:03:50.190Z,6.73
2018-05-21T12:06:17.729Z,3.97
2018-05-21T12:08:45.264Z,5.83
2018-05-21T12:11:12.786Z,5.50
2018-05-21T12:13:41.211Z,5.10
2018-05-21T12:16:09.520Z,5.17
2018-05-21T12:18:37.081Z,5.27
2018-05-21T12:21:04.726Z,4.67
2018-05-21T12:23:32.250Z,4.43
2018-05-21T12:25:59.813Z,5.30
2018-05-21T12:28:27.352Z,4.83
2018-05-21T12:30:54.893Z,5.63
2018-05-21T12:33:22.441Z,8.00
2018-05-21T12:35:50.537Z,5.73
2018-05-21T12:38:18.068Z,4.27
2018-05-21T12:40:46.844Z,4.20
2018-05-21T12:43:14.490Z,5.57
2018-05-21T12:45:42.016Z,4.57
2018-05-21T12:48:09.545Z,3.93
2018-05-21T12:50:37.858Z,5.87
2018-05-21T12:53:05.410Z,4.60
2018-05-21T12:55:32.984Z,5.23
2018-05-21T12:58:01.441Z,3.87
2018-05-21T13:00:28.978Z,4.20
2018-05-21T13:02:56.519Z,3.97
2018-05-21T13:05:24.060Z,3.77
2018-05-21T13:07:51.638Z,4.23
2018-05-21T13:10:19.181Z,3.60
2018-05-21T13:12:46.716Z,4.60
2018-05-21T13:15:15.096Z,3.77
2018-05-21T13:17:43.331Z,3.67
2018-05-21T13:20:11.624Z,4.17
2018-05-21T13:22:39.928Z,4.17
2018-05-21T13:25:08.246Z,3.70
2018-05-21T13:27:35.820Z,4.00
2018-05-21T13:30:04.144Z,6.20
2018-05-21T13:32:31.692Z,3.93
2018-05-21T13:34:59.997Z,5.97
2018-05-21T13:37:28.294Z,3.50
2018-05-21T13:39:55.831Z,5.03
2018-05-21T13:42:23.355Z,3.40
2018-05-21T13:44:50.898Z,3.47
2018-05-21T13:47:19.198Z,4.13
2018-05-21T13:49:46.730Z,4.37
2018-05-21T13:52:14.327Z,3.40
2018-05-21T13:54:41.784Z,3.13
2018-05-21T13:57:09.314Z,5.50
2018-05-21T13:59:36.856Z,4.67
2018-05-21T14:02:04.436Z,4.90
2018-05-21T14:04:32.024Z,6.27
2018-05-21T14:06:59.564Z,3.30
2018-05-21T14:09:27.109Z,3.23
2018-05-21T14:11:55.393Z,4.10
2018-05-21T14:14:22.959Z,3.93
2018-05-21T14:16:50.503Z,3.83
2018-05-21T14:19:18.045Z,3.87
2018-05-21T14:21:45.578Z,4.97
2018-05-21T14:24:13.110Z,3.40
2018-05-21T14:26:40.644Z,3.13
2018-05-21T14:29:08.178Z,3.40
2018-05-21T14:31:35.711Z,5.53
2018-05-21T14:34:03.309Z,4.47
2018-05-21T14:36:30.853Z,4.63
2018-05-21T14:38:59.149Z,3.37
2018-05-21T14:41:26.685Z,3.80
2018-05-21T14:43:54.238Z,3.33
2018-05-21T14:46:21.813Z,4.63
2018-05-21T14:48:50.117Z,4.93
2018-05-21T14:51:18.411Z,3.67
2018-05-21T14:53:46.729Z,4.27
2018-05-21T14:56:15.030Z,3.20
2018-05-21T14:58:43.727Z,4.17
2018-05-21T15:01:11.256Z,3.50
2018-05-21T15:03:38.802Z,5.53
2018-05-21T15:06:07.136Z,3.33
2018-05-21T15:08:34.676Z,3.50
2018-05-21T15:11:02.249Z,3.77
2018-05-21T15:13:29.771Z,3.53
2018-05-21T15:15:57.322Z,3.30
2018-05-21T15:18:24.848Z,4.87
2018-05-21T15:20:52.401Z,3.43
2018-05-21T15:23:19.922Z,3.70
2018-05-21T15:25:47.461Z,3.23
2018-05-21T15:28:14.990Z,3.77
2018-05-21T15:30:42.531Z,4.13
2018-05-21T15:33:10.073Z,3.27
2018-05-21T15:35:37.693Z,3.67
2018-05-21T15:38:05.247Z,5.60
2018-05-21T15:40:32.801Z,4.03
2018-05-21T15:43:00.352Z,3.20
2018-05-21T15:45:28.656Z,3.80
2018-05-21T15:47:56.951Z,4.73
2018-05-21T15:50:25.257Z,4.57
2018-05-21T15:52:52.821Z,4.20
2018-05-21T15:55:20.362Z,4.60
2018-05-21T15:57:47.898Z,4.20
2018-05-21T16:00:15.449Z,4.10
2018-05-21T16:02:42.972Z,5.10
2018-05-21T16:05:10.508Z,4.33
2018-05-21T16:07:38.053Z,3.33
2018-05-21T16:10:06.376Z,3.77
2018-05-21T16:12:35.150Z,4.57
2018-05-21T16:15:02.797Z,3.80
2018-05-21T16:17:30.355Z,4.50
2018-05-21T16:19:57.887Z,3.57
2018-05-21T16:22:25.432Z,3.47
2018-05-21T16:24:52.957Z,3.60
2018-05-21T16:27:20.490Z,4.10
2018-05-21T16:29:48.034Z,4.60
2018-05-21T16:32:15.564Z,4.20
2018-05-21T16:34:43.098Z,4.23
2018-05-21T16:37:10.625Z,4.67
2018-05-21T16:39:38.166Z,4.30
2018-05-21T16:42:05.695Z,4.87
2018-05-21T16:44:33.264Z,7.57
2018-05-21T16:47:01.811Z,5.70
2018-05-21T16:49:29.349Z,4.73
2018-05-21T16:51:57.660Z,4.63
2018-05-21T16:54:25.967Z,4.17
2018-05-21T16:56:53.515Z,6.40
2018-05-21T16:59:21.101Z,6.07
2018-05-21T17:01:48.644Z,3.97
2018-05-21T17:04:16.159Z,3.73
2018-05-21T17:06:43.713Z,4.63
2018-05-21T17:09:11.238Z,4.60
2018-05-21T17:11:38.783Z,4.43
2018-05-21T17:14:06.330Z,4.77
2018-05-21T17:16:34.660Z,3.47
2018-05-21T17:19:02.496Z,4.00
2018-05-21T17:21:30.032Z,4.73
2018-05-21T17:23:57.566Z,3.80
2018-05-21T17:26:25.106Z,4.47
2018-05-21T17:28:52.657Z,4.60
2018-05-21T17:31:20.219Z,5.00
2018-05-21T17:33:47.762Z,4.17
2018-05-21T17:36:15.314Z,4.93
2018-05-21T17:38:42.835Z,4.30
2018-05-21T17:41:10.390Z,5.33
2018-05-21T17:43:37.966Z,5.37
2018-05-21T17:46:06.278Z,4.63
2018-05-21T17:48:33.865Z,3.93
2018-05-21T17:51:01.429Z,5.13
2018-05-21T17:53:28.973Z,6.47
2018-05-21T17:55:56.584Z,3.67
2018-05-21T17:58:24.045Z,4.63
2018-05-21T18:00:51.612Z,4.17
2018-05-21T18:03:19.205Z,5.10
2018-05-21T18:05:47.468Z,5.87
2018-05-21T18:08:15.817Z,5.57
2018-05-21T18:10:44.077Z,6.83
2018-05-21T18:13:11.658Z,4.83
2018-05-21T18:15:39.957Z,4.93
2018-05-21T18:18:08.825Z,4.37
2018-05-21T18:20:36.505Z,6.20
2018-05-21T18:23:04.098Z,4.67
2018-05-21T18:25:31.753Z,4.33
2018-05-21T18:27:59.288Z,5.07
2018-05-21T18:30:26.842Z,4.77
2018-05-21T18:32:54.369Z,5.37
2018-05-21T18:35:22.697Z,4.83
2018-05-21T18:37:50.250Z,4.17
2018-05-21T18:40:17.791Z,4.47
2018-05-21T18:42:45.322Z,4.33
2018-05-21T18:45:12.866Z,6.30
2018-05-21T18:47:40.532Z,7.23
2018-05-21T18:50:08.101Z,4.63
2018-05-21T18:52:35.638Z,5.10
2018-05-21T18:55:03.192Z,4.83
2018-05-21T18:57:30.742Z,5.30
2018-05-21T18:59:58.277Z,6.90
2018-05-21T19:02:25.821Z,5.37
2018-05-21T19:04:53.357Z,5.13
2018-05-21T19:07:20.922Z,4.60
2018-05-21T19:09:48.445Z,4.23
2018-05-21T19:12:16.749Z,5.63
2018-05-21T19:14:45.049Z,5.00
2018-05-21T19:17:13.345Z,6.03
2018-05-21T19:19:40.893Z,4.70
2018-05-21T19:22:08.442Z,5.10
2018-05-21T19:24:35.974Z,5.40
2018-05-21T19:27:03.540Z,5.03
2018-05-21T19:29:31.060Z,5.20
2018-05-21T19:31:58.594Z,7.70
2018-05-21T19:34:26.124Z,7.00
2018-05-21T19:36:53.657Z,4.97
2018-05-21T19:39:21.212Z,7.43
2018-05-21T19:41:49.517Z,6.13
2018-05-21T19:44:17.816Z,4.77
2018-05-21T19:46:46.116Z,5.73
2018-05-21T19:49:14.418Z,6.90
2018-05-21T19:51:42.726Z,4.80
2018-05-21T19:54:11.025Z,5.70
2018-05-21T19:56:39.341Z,4.97
2018-05-21T19:59:06.881Z,5.50
2018-05-21T20:01:34.425Z,5.70
2018-05-21T20:04:02.023Z,5.90
2018-05-21T20:06:29.556Z,6.27
2018-05-21T20:08:57.882Z,6.43
2018-05-21T20:11:25.413Z,7.90
2018-05-21T20:13:52.964Z,6.33
2018-05-21T20:16:20.533Z,8.33
2018-05-21T20:18:48.068Z,5.97
2018-05-21T20:21:15.628Z,6.13
2018-05-21T20:23:43.175Z,5.33
2018-05-21T20:26:11.489Z,6.80
2018-05-21T20:28:39.026Z,6.00
2018-05-21T20:31:06.573Z,8.20
2018-05-21T20:33:35.017Z,6.50
2018-05-21T20:36:02.585Z,6.07
2018-05-21T20:38:30.115Z,6.67
2018-05-21T20:40:57.655Z,6.97
2018-05-21T20:43:25.185Z,8.23
2018-05-21T20:45:52.728Z,6.17
2018-05-21T20:48:20.306Z,8.27
2018-05-21T20:50:47.832Z,6.93
2018-05-21T20:53:16.143Z,7.87
2018-05-21T20:55:43.677Z,8.80
2018-05-21T20:58:11.221Z,6.60
2018-05-21T21:00:38.762Z,6.50
2018-05-21T21:03:06.312Z,9.07
2018-05-21T21:05:33.867Z,6.67
2018-05-21T21:08:01.415Z,6.57
2018-05-21T21:10:28.954Z,6.87
2018-05-21T21:12:56.488Z,7.77
2018-05-21T21:15:24.034Z,7.73
2018-05-21T21:17:51.597Z,6.90
2018-05-21T21:20:19.150Z,7.10
2018-05-21T21:22:47.440Z,8.03
2018-05-21T21:25:14.974Z,6.80
2018-05-21T21:27:42.503Z,9.17
2018-05-21T21:30:10.059Z,7.03
2018-05-21T21:32:37.643Z,8.07
2018-05-21T21:35:05.910Z,6.80
2018-05-21T21:37:33.479Z,6.60
2018-05-21T21:40:01.827Z,6.77
2018-05-21T21:42:29.370Z,6.50
2018-05-21T21:44:56.904Z,7.53
2018-05-21T21:47:24.430Z,6.80
2018-05-21T21:49:52.757Z,7.53
2018-05-21T21:52:20.313Z,7.40
2018-05-21T21:54:48.611Z,7.33
2018-05-21T21:57:16.923Z,7.20
2018-05-21T21:59:45.222Z,6.80
2018-05-21T22:02:13.536Z,7.43
2018-05-21T22:04:41.850Z,6.93
2018-05-21T22:07:09.379Z,7.93
2018-05-21T22:09:36.925Z,7.37
2018-05-21T22:12:04.501Z,7.20
2018-05-21T22:14:32.085Z,7.47
2018-05-21T22:16:59.637Z,8.30
2018-05-21T22:19:27.159Z,6.30
2018-05-21T22:21:54.701Z,7.10
2018-05-21T22:24:22.251Z,7.07
2018-05-21T22:26:49.782Z,9.20
2018-05-21T22:29:18.076Z,8.87
2018-05-21T22:31:46.401Z,8.20
2018-05-21T22:34:14.694Z,10.57
2018-05-21T22:36:43.727Z,11.40
2018-05-21T22:39:12.109Z,9.30
2018-05-21T22:41:40.436Z,9.13
2018-05-21T22:44:08.052Z,9.30
2018-05-21T22:46:35.573Z,10.10
2018-05-21T22:49:03.116Z,9.40
2018-05-21T22:51:30.663Z,12.20
2018-05-21T22:53:58.270Z,9.20
2018-05-21T22:56:25.738Z,9.70
2018-05-21T22:58:53.272Z,9.20
2018-05-21T23:01:20.829Z,9.53
2018-05-21T23:03:48.359Z,9.67
2018-05-21T23:06:15.887Z,9.93
2018-05-21T23:08:43.429Z,10.23
2018-05-21T23:11:11.733Z,9.47
2018-05-21T23:13:39.273Z,10.77
2018-05-21T23:16:06.820Z,8.90
2018-05-21T23:18:34.372Z,7.57
2018-05-21T23:21:01.985Z,8.70
2018-05-21T23:23:29.539Z,10.43
2018-05-21T23:25:57.075Z,9.73
2018-05-21T23:28:24.612Z,9.53
2018-05-21T23:30:52.161Z,9.23
2018-05-21T23:33:19.697Z,9.87
2018-05-21T23:35:47.992Z,8.77
2018-05-21T23:38:16.295Z,11.50
2018-05-21T23:40:43.817Z,9.57
2018-05-21T23:43:11.363Z,9.53
2018-05-21T23:45:39.649Z,9.10
2018-05-21T23:48:07.203Z,10.73
2018-05-21T23:50:34.756Z,10.97
2018-05-21T23:53:02.330Z,10.53
2018-05-21T23:55:30.631Z,10.60
2018-05-21T23:57:58.160Z,10.13
